Time;durP1;ratioP1;P1;durP2;ratioP2;P2;SDS_P1;SDS_P2;PMS_P1;PMS_P2;Temp;Humidity;BMP_temperature;BMP_pressure;BME280_temperature;BME280_humidity;BME280_pressure;Samples;Min_cycle;Max_cycle;Signal;HPM_P1;HPM_P2
2023/03/30 00:01:23;;;;;;;6.08;2.37;;;;;;;-0.15;67.24;100443.27;1734603;83;20992;-63
2023/03/30 00:03:53;;;;;;;7.12;2.47;;;;;;;-0.16;67.22;100446.09;1734382;82;21019;-62
2023/03/30 00:06:23;;;;;;;6.95;2.40;;;;;;;-0.18;67.07;100447.56;1734314;83;21059;-63
2023/03/30 00:08:56;;;;;;;5.97;2.55;;;;;;;-0.18;67.18;100446.71;1734444;83;21107;-61
2023/03/30 00:11:25;;;;;;;5.22;2.00;;;;;;;-0.19;67.00;100440.96;1689731;83;21059;-62
2023/03/30 00:13:54;;;;;;;5.75;2.20;;;;;;;-0.20;67.19;100445.98;1689670;84;21114;-63
2023/03/30 00:16:24;;;;;;;5.97;2.52;;;;;;;-0.19;67.24;100445.00;1734559;83;21471;-64
2023/03/30 00:18:53;;;;;;;6.45;2.58;;;;;;;-0.19;67.25;100449.04;1736922;82;21052;-62
2023/03/30 00:21:23;;;;;;;5.35;2.30;;;;;;;-0.19;67.11;100449.04;1737432;82;21031;-63
2023/03/30 00:23:54;;;;;;;7.30;2.90;;;;;;;-0.18;67.08;100449.41;1736755;82;21008;-62
2023/03/30 00:26:23;;;;;;;7.30;3.12;;;;;;;-0.20;66.99;100441.95;1732999;82;21056;-61
2023/03/30 00:28:51;;;;;;;7.60;2.52;;;;;;;-0.22;67.02;100435.34;1733282;81;21061;-62
2023/03/30 00:31:20;;;;;;;6.25;2.22;;;;;;;-0.23;66.99;100436.33;1731449;83;21443;-62
2023/03/30 00:33:51;;;;;;;5.78;2.37;;;;;;;-0.21;66.81;100444.27;1729747;83;21520;-61
2023/03/30 00:36:21;;;;;;;6.05;2.22;;;;;;;-0.24;66.89;100440.48;1722784;82;21484;-63
2023/03/30 00:38:50;;;;;;;7.53;2.00;;;;;;;-0.24;66.74;100441.84;1730008;81;21069;-62
2023/03/30 00:41:18;;;;;;;4.40;1.70;;;;;;;-0.28;66.71;100441.73;1729685;83;21065;-62
2023/03/30 00:44:03;;;;;;;3.45;1.77;;;;;;;-0.29;66.77;100439.53;1729812;81;21014;-62
2023/03/30 00:46:34;;;;;;;4.37;1.80;;;;;;;-0.28;66.72;100441.73;1729873;81;21434;-63
2023/03/30 00:49:07;;;;;;;5.58;2.00;;;;;;;-0.29;66.64;100439.53;1730083;83;21002;-63
2023/03/30 00:51:40;;;;;;;3.20;1.47;;;;;;;-0.29;66.56;100442.71;1729857;83;21022;-63
2023/03/30 00:54:13;;;;;;;4.47;2.08;;;;;;;-0.32;66.56;100447.37;1729878;83;21073;-63
2023/03/30 00:56:42;;;;;;;3.27;1.77;;;;;;;-0.32;66.55;100454.09;1729769;83;21085;-61
2023/03/30 00:59:12;;;;;;;3.27;1.82;;;;;;;-0.33;66.62;100454.22;1729932;82;21010;-63
2023/03/30 01:01:48;;;;;;;3.35;1.50;;;;;;;-0.34;66.54;100455.20;1730008;82;21018;-62
2023/03/30 01:04:15;;;;;;;2.45;1.32;;;;;;;-0.36;66.40;100458.52;1699845;82;21045;-63
2023/03/30 01:06:45;;;;;;;2.83;1.35;;;;;;;-0.39;66.39;100459.62;1730157;83;21093;-61
2023/03/30 01:09:15;;;;;;;2.55;1.30;;;;;;;-0.41;66.28;100450.81;1730075;82;21034;-63
2023/03/30 01:11:46;;;;;;;4.15;1.67;;;;;;;-0.41;66.39;100460.23;1729826;82;21014;-63
2023/03/30 01:14:15;;;;;;;5.42;1.75;;;;;;;-0.42;66.54;100455.84;1729985;82;20979;-63
2023/03/30 01:17:04;;;;;;;3.12;1.35;;;;;;;-0.39;66.60;100471.73;1729847;82;21038;-62
2023/03/30 01:20:22;;;;;;;4.28;1.70;;;;;;;-0.38;66.50;100463.17;1693458;83;21478;-62
2023/03/30 01:23:17;;;;;;;4.55;1.90;;;;;;;-0.36;66.32;100477.36;1689783;84;21103;-63
2023/03/30 01:26:03;;;;;;;5.35;1.82;;;;;;;-0.42;66.23;100473.33;1725182;83;21494;-63
2023/03/30 01:28:56;;;;;;;5.13;1.73;;;;;;;-0.44;66.33;100479.33;1725579;83;21022;-62
2023/03/30 01:31:47;;;;;;;4.40;1.77;;;;;;;-0.44;66.19;100479.33;1725199;83;21049;-63
2023/03/30 01:34:56;;;;;;;5.55;1.95;;;;;;;-0.45;66.19;100486.19;1725590;83;21021;-63
2023/03/30 01:37:45;;;;;;;4.08;1.80;;;;;;;-0.45;66.25;100484.84;1650008;85;21075;-63
2023/03/30 01:40:31;;;;;;;2.87;1.50;;;;;;;-0.45;66.31;100479.45;1716461;82;21026;-63
2023/03/30 01:43:14;;;;;;;4.03;1.60;;;;;;;-0.45;66.29;100487.04;1725289;82;21418;-62
2023/03/30 01:45:54;;;;;;;2.52;1.50;;;;;;;-0.45;66.16;100489.73;1722247;82;21537;-63
2023/03/30 01:48:35;;;;;;;5.05;1.80;;;;;;;-0.44;66.21;100491.94;1725362;83;21449;-63
2023/03/30 01:51:06;;;;;;;7.08;2.00;;;;;;;-0.45;66.22;100492.42;1725110;82;21077;-63
2023/03/30 01:54:05;;;;;;;4.00;1.92;;;;;;;-0.45;66.21;100488.39;1725413;82;21173;-62
2023/03/30 01:56:45;;;;;;;3.98;1.45;;;;;;;-0.46;66.14;100500.13;1705156;83;21042;-62
2023/03/30 01:59:19;;;;;;;5.28;2.10;;;;;;;-0.46;65.91;100501.97;1725457;82;21065;-62
2023/03/30 02:01:49;;;;;;;4.72;2.15;;;;;;;-0.47;65.88;100500.26;1725317;83;21410;-64
2023/03/30 02:04:21;;;;;;;4.72;2.20;;;;;;;-0.47;65.98;100501.11;1699240;83;21554;-62
2023/03/30 02:07:00;;;;;;;3.20;1.85;;;;;;;-0.46;65.94;100505.52;1725108;83;21046;-63
2023/03/30 02:09:29;;;;;;;8.03;2.60;;;;;;;-0.46;65.76;100516.28;1725395;82;21061;-63
2023/03/30 02:11:58;;;;;;;6.28;1.70;;;;;;;-0.47;65.82;100515.92;1725158;82;21069;-62
2023/03/30 02:14:31;;;;;;;4.30;2.00;;;;;;;-0.48;65.78;100510.17;1725226;82;20986;-62
2023/03/30 02:17:10;;;;;;;4.22;1.70;;;;;;;-0.49;65.84;100514.33;1725312;83;21456;-63
2023/03/30 02:19:38;;;;;;;7.17;1.85;;;;;;;-0.49;65.78;100517.88;1722526;83;21066;-65
2023/03/30 02:22:08;;;;;;;6.20;1.90;;;;;;;-0.50;65.66;100522.89;1722166;82;21482;-63
2023/03/30 02:24:39;;;;;;;4.62;2.15;;;;;;;-0.53;65.45;100528.52;1722435;82;21069;-62
2023/03/30 02:27:07;;;;;;;6.25;2.08;;;;;;;-0.56;65.50;100530.61;1722376;82;21055;-64
2023/03/30 02:29:38;;;;;;;5.12;2.00;;;;;;;-0.57;65.62;100527.06;1722103;83;21074;-62
2023/03/30 02:32:08;;;;;;;5.05;1.87;;;;;;;-0.58;65.68;100526.69;1721848;82;21023;-62
2023/03/30 02:35:17;;;;;;;6.50;2.05;;;;;;;-0.59;65.60;100523.64;1694671;83;21010;-65
2023/03/30 02:38:31;;;;;;;3.35;1.67;;;;;;;-0.61;65.58;100526.09;1722287;82;21050;-62
2023/03/30 02:41:14;;;;;;;5.12;2.10;;;;;;;-0.62;65.56;100527.92;1717112;83;21070;-62
2023/03/30 02:44:30;;;;;;;4.05;1.98;;;;;;;-0.64;65.66;100536.60;1722356;82;21029;-62
2023/03/30 02:47:21;;;;;;;4.87;2.12;;;;;;;-0.63;65.75;100535.63;1722415;82;21034;-64
2023/03/30 02:50:17;;;;;;;7.90;2.27;;;;;;;-0.61;65.61;100530.12;1722183;83;21035;-62
2023/03/30 02:52:56;;;;;;;5.30;2.00;;;;;;;-0.62;65.47;100533.79;1722273;83;21041;-63
2023/03/30 02:55:33;;;;;;;3.45;2.12;;;;;;;-0.63;65.58;100538.31;1722233;82;21018;-62
2023/03/30 02:58:24;;;;;;;4.12;2.10;;;;;;;-0.64;65.54;100540.64;1721830;83;20998;-62
2023/03/30 03:01:36;;;;;;;5.85;2.25;;;;;;;-0.66;65.61;100542.08;1722172;82;20990;-64
2023/03/30 03:04:14;;;;;;;3.52;1.75;;;;;;;-0.64;65.59;100552.75;1722356;83;21082;-63
2023/03/30 03:07:03;;;;;;;6.15;2.10;;;;;;;-0.66;65.44;100546.11;1722221;82;20999;-63
2023/03/30 03:09:37;;;;;;;6.35;2.17;;;;;;;-0.67;65.39;100546.23;1722411;82;21053;-62
2023/03/30 03:12:05;;;;;;;7.45;2.50;;;;;;;-0.67;65.41;100551.62;1722257;82;21014;-64
2023/03/30 03:14:38;;;;;;;5.78;2.55;;;;;;;-0.68;65.37;100552.59;1721951;82;21023;-64
2023/03/30 03:17:07;;;;;;;6.40;2.08;;;;;;;-0.69;65.31;100554.92;1722619;83;21070;-62
2023/03/30 03:19:37;;;;;;;8.40;2.80;;;;;;;-0.70;65.40;100553.20;1722051;82;21122;-62
2023/03/30 03:22:07;;;;;;;7.45;2.25;;;;;;;-0.71;65.56;100563.11;1722443;83;21416;-64
2023/03/30 03:24:38;;;;;;;10.88;2.90;;;;;;;-0.69;65.00;100566.53;1722330;83;21109;-63
2023/03/30 03:27:11;;;;;;;6.15;2.00;;;;;;;-0.72;65.00;100568.61;1722443;82;21058;-62
2023/03/30 03:29:54;;;;;;;5.25;2.12;;;;;;;-0.71;65.00;100568.49;1722149;82;21465;-63
2023/03/30 03:32:24;;;;;;;6.00;2.17;;;;;;;-0.69;64.85;100567.02;1722046;82;21070;-62
2023/03/30 03:34:55;;;;;;;7.65;1.92;;;;;;;-0.69;64.83;100572.41;1717690;82;21002;-62
2023/03/30 03:37:26;;;;;;;6.10;2.50;;;;;;;-0.69;64.84;100567.88;1723422;83;21038;-61
2023/03/30 03:39:58;;;;;;;7.05;2.85;;;;;;;-0.67;64.83;100575.34;1724631;82;21018;-64
2023/03/30 03:42:30;;;;;;;8.33;2.90;;;;;;;-0.68;64.73;100571.42;1725048;82;21030;-64
2023/03/30 03:45:01;;;;;;;6.25;3.00;;;;;;;-0.67;64.74;100575.83;1725180;82;21079;-63
2023/03/30 03:47:34;;;;;;;8.08;3.42;;;;;;;-0.71;64.58;100577.05;1725180;83;21015;-62
2023/03/30 03:50:08;;;;;;;11.55;3.02;;;;;;;-0.74;64.78;100578.15;1725256;83;21070;-64
2023/03/30 03:52:36;;;;;;;15.53;2.92;;;;;;;-0.74;64.70;100577.30;1723435;83;21415;-66
2023/03/30 03:55:06;;;;;;;6.30;2.30;;;;;;;-0.76;64.75;100577.41;1722314;82;21046;-62
2023/03/30 03:57:38;;;;;;;9.45;2.77;;;;;;;-0.76;64.72;100576.07;1632835;87;21134;-64
2023/03/30 04:00:17;;;;;;;8.43;2.60;;;;;;;-0.78;64.46;100578.02;1633219;88;21106;-64
2023/03/30 04:02:50;;;;;;;7.08;2.52;;;;;;;-0.81;64.40;100576.92;1637660;86;21050;-63
2023/03/30 04:05:20;;;;;;;10.03;3.00;;;;;;;-0.82;64.47;100586.45;1583073;89;21097;-63
2023/03/30 04:07:52;;;;;;;13.53;3.55;;;;;;;-0.82;64.62;100587.80;1583125;89;21089;-62
2023/03/30 04:10:20;;;;;;;9.68;2.60;;;;;;;-0.81;64.67;100588.17;1583337;90;21352;-62
2023/03/30 04:13:08;;;;;;;4.85;2.22;;;;;;;-0.82;64.58;100579.73;1582994;90;21509;-64
2023/03/30 04:15:50;;;;;;;14.87;3.35;;;;;;;-0.82;64.50;100589.14;1609285;88;21074;-64
2023/03/30 04:18:37;;;;;;;10.05;2.42;;;;;;;-0.82;64.55;100583.28;1634886;86;21113;-63
2023/03/30 04:21:11;;;;;;;19.82;3.50;;;;;;;-0.80;64.54;100590.73;1637455;87;21070;-64
2023/03/30 04:23:50;;;;;;;11.85;3.40;;;;;;;-0.80;64.66;100592.08;1684619;83;21450;-64
2023/03/30 04:26:19;;;;;;;17.77;4.78;;;;;;;-0.79;64.57;100591.11;1730749;82;21448;-65
2023/03/30 04:28:55;;;;;;;13.15;3.87;;;;;;;-0.79;64.50;100595.63;1730009;82;21073;-64
2023/03/30 04:31:45;;;;;;;13.18;3.87;;;;;;;-0.77;64.52;100593.67;1668615;85;21079;-63
2023/03/30 04:34:30;;;;;;;14.68;3.60;;;;;;;-0.74;64.40;100594.78;1666115;85;21102;-63
2023/03/30 04:37:06;;;;;;;11.83;4.05;;;;;;;-0.73;64.48;100592.45;1702063;83;21462;-62
2023/03/30 04:39:44;;;;;;;8.60;3.62;;;;;;;-0.70;64.47;100593.56;1731100;82;21473;-62
2023/03/30 04:42:36;;;;;;;14.33;3.85;;;;;;;-0.69;64.41;100592.58;1730542;82;21532;-62
2023/03/30 04:45:25;;;;;;;9.08;3.67;;;;;;;-0.67;64.46;100587.94;1730518;82;21042;-62
2023/03/30 04:48:14;;;;;;;8.00;3.15;;;;;;;-0.66;64.29;100592.34;1731064;82;21432;-62
2023/03/30 04:51:04;;;;;;;16.07;5.15;;;;;;;-0.64;64.10;100599.84;1731044;82;21457;-64
2023/03/30 04:53:44;;;;;;;16.80;5.37;;;;;;;-0.63;64.02;100598.86;1730062;82;21054;-63
2023/03/30 04:56:32;;;;;;;13.30;3.92;;;;;;;-0.58;64.20;100591.77;1731365;82;21476;-64
2023/03/30 04:59:03;;;;;;;15.78;4.53;;;;;;;-0.54;64.02;100599.47;1730831;82;21022;-62
2023/03/30 05:01:50;;;;;;;7.92;3.55;;;;;;;-0.52;63.82;100601.55;1731150;82;21076;-63
2023/03/30 05:04:26;;;;;;;12.53;3.90;;;;;;;-0.50;63.56;100604.13;1730767;82;21410;-63
2023/03/30 05:07:13;;;;;;;12.98;4.50;;;;;;;-0.48;63.66;100612.44;1730948;82;21097;-63
2023/03/30 05:09:47;;;;;;;14.13;4.50;;;;;;;-0.45;63.55;100618.07;1730366;82;21058;-64
2023/03/30 05:12:21;;;;;;;17.67;4.25;;;;;;;-0.43;63.55;100612.93;1730351;82;21542;-62
2023/03/30 05:14:53;;;;;;;15.05;4.83;;;;;;;-0.39;63.42;100610.84;1731318;82;21478;-62
2023/03/30 05:17:41;;;;;;;18.75;4.42;;;;;;;-0.36;63.27;100610.12;1730882;82;21037;-64
2023/03/30 05:20:27;;;;;;;11.70;3.70;;;;;;;-0.33;63.33;100615.74;1664224;83;21031;-64
2023/03/30 05:23:01;;;;;;;27.60;4.90;;;;;;;-0.28;63.31;100612.68;1656711;85;21071;-63
2023/03/30 05:25:35;;;;;;;11.43;4.35;;;;;;;-0.24;63.19;100613.66;1659638;85;21552;-63
2023/03/30 05:28:13;;;;;;;16.07;4.90;;;;;;;-0.21;62.97;100616.10;1654733;86;21785;-62
2023/03/30 05:30:45;;;;;;;8.50;3.42;;;;;;;-0.17;62.87;100612.19;1662511;85;21070;-63
2023/03/30 05:33:34;;;;;;;11.48;3.40;;;;;;;-0.14;62.82;100615.12;1658043;86;21507;-63
2023/03/30 05:36:11;;;;;;;11.55;3.55;;;;;;;-0.10;62.65;100607.16;1633685;86;21313;-63
2023/03/30 05:38:45;;;;;;;18.23;4.12;;;;;;;-0.09;62.32;100608.87;1656248;85;21066;-64
2023/03/30 05:41:33;;;;;;;19.87;4.40;;;;;;;-0.06;62.21;100612.66;1658327;85;21099;-64
2023/03/30 05:44:05;;;;;;;12.55;3.90;;;;;;;-0.05;62.28;100611.67;1635419;86;21011;-65
2023/03/30 05:46:41;;;;;;;5.03;2.90;;;;;;;0.00;62.32;100610.84;1629575;86;21545;-63
2023/03/30 05:49:21;;;;;;;6.85;2.40;;;;;;;0.05;62.29;100615.86;1661452;86;21347;-66
2023/03/30 05:51:52;;;;;;;10.90;2.50;;;;;;;0.07;62.13;100610.70;1655626;85;21103;-64
2023/03/30 05:54:26;;;;;;;12.20;3.30;;;;;;;0.12;61.86;100618.42;1650670;82;21018;-65
2023/03/30 05:57:14;;;;;;;7.42;2.58;;;;;;;0.16;61.87;100619.38;1722490;82;21011;-62
2023/03/30 06:00:00;;;;;;;6.50;2.75;;;;;;;0.22;61.76;100622.06;1665104;85;21076;-64
2023/03/30 06:02:45;;;;;;;9.28;2.40;;;;;;;0.25;61.63;100618.62;1710196;83;21474;-63
2023/03/30 06:05:16;;;;;;;10.35;3.30;;;;;;;0.26;61.01;100620.34;1722360;83;21006;-64
2023/03/30 06:07:45;;;;;;;23.70;3.83;;;;;;;0.30;60.96;100622.29;1722133;82;21041;-63
2023/03/30 06:10:16;;;;;;;8.75;2.83;;;;;;;0.33;60.98;100613.95;1722101;83;21454;-64
2023/03/30 06:12:45;;;;;;;7.83;2.70;;;;;;;0.36;60.51;100615.05;1721991;82;21520;-64
2023/03/30 06:15:22;;;;;;;9.63;3.12;;;;;;;0.38;60.25;100617.13;1721920;83;21050;-64
2023/03/30 06:17:54;;;;;;;9.75;2.30;;;;;;;0.41;60.40;100616.01;1722140;83;21038;-64
2023/03/30 06:20:25;;;;;;;7.42;2.77;;;;;;;0.44;60.49;100623.84;1721926;82;21422;-64
2023/03/30 06:22:54;;;;;;;14.45;3.20;;;;;;;0.48;60.07;100625.30;1722018;82;21038;-64
2023/03/30 06:25:25;;;;;;;9.88;2.92;;;;;;;0.51;60.19;100628.59;1722227;82;21038;-63
2023/03/30 06:27:56;;;;;;;10.93;2.90;;;;;;;0.55;60.23;100629.19;1722396;82;21011;-65
2023/03/30 06:30:26;;;;;;;10.10;3.15;;;;;;;0.58;59.99;100631.63;1722327;82;21046;-63
2023/03/30 06:32:58;;;;;;;13.20;3.00;;;;;;;0.63;60.18;100625.36;1721706;83;21350;-64
2023/03/30 06:35:49;;;;;;;9.68;2.25;;;;;;;0.70;60.37;100625.25;1721853;82;21089;-64
2023/03/30 06:38:21;;;;;;;10.75;4.28;;;;;;;0.76;59.74;100619.83;1722503;83;21011;-63
2023/03/30 06:40:51;;;;;;;6.58;3.20;;;;;;;0.79;59.66;100622.27;1722033;83;21010;-65
2023/03/30 06:43:24;;;;;;;10.40;2.83;;;;;;;0.83;59.23;100616.48;1721941;83;20983;-64
2023/03/30 06:46:02;;;;;;;9.85;2.27;;;;;;;0.87;59.31;100623.82;1722052;82;21212;-65
2023/03/30 06:48:33;;;;;;;4.10;1.95;;;;;;;0.91;59.16;100617.17;1722083;83;21018;-66
2023/03/30 06:51:05;;;;;;;10.65;2.37;;;;;;;0.95;58.92;100618.13;1686071;83;21030;-64
2023/03/30 06:53:34;;;;;;;12.40;4.17;;;;;;;0.99;58.40;100624.13;1721854;83;21240;-64
2023/03/30 06:56:06;;;;;;;5.35;2.30;;;;;;;1.00;58.22;100617.73;1722120;82;21034;-62
2023/03/30 06:58:38;;;;;;;8.10;1.70;;;;;;;1.02;58.06;100617.11;1722037;82;22100;-64
2023/03/30 07:01:14;;;;;;;6.58;1.77;;;;;;;1.03;57.86;100623.37;1721851;83;21026;-65
2023/03/30 07:04:01;;;;;;;15.20;2.47;;;;;;;1.07;57.71;100616.23;1722842;83;21030;-63
2023/03/30 07:06:36;;;;;;;7.28;2.27;;;;;;;1.10;57.60;100618.66;1722774;83;21030;-64
2023/03/30 07:09:05;;;;;;;5.33;2.33;;;;;;;1.14;57.01;100611.16;1719839;83;21102;-66
2023/03/30 07:11:36;;;;;;;5.70;1.92;;;;;;;1.14;56.92;100615.20;1724900;83;21030;-64
2023/03/30 07:14:11;;;;;;;16.23;2.62;;;;;;;1.17;56.66;100617.64;1720423;82;21053;-65
2023/03/30 07:16:40;;;;;;;10.88;2.40;;;;;;;1.18;56.72;100613.45;1718458;82;21022;-65
2023/03/30 07:19:10;;;;;;;4.37;1.40;;;;;;;1.24;56.75;100605.33;1714813;82;20979;-65
2023/03/30 07:21:41;;;;;;;9.75;2.33;;;;;;;1.28;56.24;100599.53;1689273;85;21043;-64
2023/03/30 07:24:12;;;;;;;3.45;1.40;;;;;;;1.31;56.06;100597.09;1694349;83;21066;-65
2023/03/30 07:26:41;;;;;;;3.70;1.30;;;;;;;1.34;55.06;100586.02;1693944;83;21554;-64
2023/03/30 07:29:10;;;;;;;9.03;2.22;;;;;;;1.32;54.46;100597.45;1694189;84;21039;-64
2023/03/30 07:31:41;;;;;;;11.03;2.12;;;;;;;1.30;54.04;100599.43;1693842;83;21532;-64
2023/03/30 07:34:11;;;;;;;7.55;1.90;;;;;;;1.29;54.66;100592.28;1694331;84;21139;-65
2023/03/30 07:36:43;;;;;;;16.73;2.83;;;;;;;1.34;55.03;100594.61;1694070;84;21054;-63
2023/03/30 07:39:14;;;;;;;29.55;5.30;;;;;;;1.38;55.10;100585.27;1647352;85;21459;-64
2023/03/30 07:41:44;;;;;;;9.45;2.02;;;;;;;1.43;54.77;100583.87;1674099;84;21466;-64
2023/03/30 07:44:13;;;;;;;6.08;2.00;;;;;;;1.48;54.85;100581.62;1674584;85;21015;-64
2023/03/30 07:46:44;;;;;;;4.33;1.70;;;;;;;1.49;54.15;100579.28;1656245;86;21045;-64
2023/03/30 07:49:15;;;;;;;6.10;1.85;;;;;;;1.48;53.73;100580.27;1665623;86;21461;-62
2023/03/30 07:51:46;;;;;;;5.40;1.50;;;;;;;1.50;53.57;100584.18;1665492;86;21504;-63
2023/03/30 07:54:17;;;;;;;5.25;1.52;;;;;;;1.49;53.31;100577.08;1665700;85;21005;-64
2023/03/30 07:56:54;;;;;;;;;;;;;;;1.49;53.55;100576.58;1677896;83;21103;-61
2023/03/30 07:59:23;;;;;;;5.12;1.50;;;;;;;1.67;53.77;100586.74;1673059;84;20570;-63
2023/03/30 08:01:54;;;;;;;14.87;1.82;;;;;;;2.04;53.85;100578.43;1680163;84;21095;-64
2023/03/30 08:04:31;;;;;;;4.60;1.40;;;;;;;2.59;54.84;100577.92;1689727;83;21026;-64
2023/03/30 08:07:03;;;;;;;5.15;1.70;;;;;;;3.19;53.11;100582.16;1731655;83;21031;-65
2023/03/30 08:09:33;;;;;;;3.37;1.60;;;;;;;3.68;51.98;100573.41;1734419;82;21075;-66
2023/03/30 08:12:04;;;;;;;5.55;1.70;;;;;;;4.10;50.22;100565.16;1734245;82;21035;-64
2023/03/30 08:14:33;;;;;;;8.80;2.45;;;;;;;4.44;50.61;100567.22;1733763;83;21027;-66
2023/03/30 08:17:03;;;;;;;13.78;2.33;;;;;;;4.80;49.53;100565.38;1734704;83;20988;-64
2023/03/30 08:19:32;;;;;;;3.27;1.42;;;;;;;5.23;51.62;100560.98;1734437;82;21054;-63
2023/03/30 08:22:01;;;;;;;4.03;1.52;;;;;;;5.63;49.25;100550.86;1742595;82;21043;-63
2023/03/30 08:24:31;;;;;;;7.37;1.80;;;;;;;5.90;48.20;100556.15;1742577;81;21078;-62
2023/03/30 08:27:01;;;;;;;3.15;1.60;;;;;;;6.19;46.39;100546.72;1742476;82;21463;-64
2023/03/30 08:29:32;;;;;;;8.10;1.70;;;;;;;6.39;46.91;100543.20;1742447;82;21419;-63
2023/03/30 08:32:01;;;;;;;10.40;2.27;;;;;;;6.62;47.22;100541.05;1740754;82;21059;-63
2023/03/30 08:34:31;;;;;;;7.55;2.00;;;;;;;6.86;46.03;100541.56;1739624;82;21055;-64
2023/03/30 08:37:02;;;;;;;4.25;1.42;;;;;;;7.00;45.06;100540.03;1710735;82;21095;-63
2023/03/30 08:39:32;;;;;;;6.35;1.57;;;;;;;7.12;43.98;100515.49;1739171;82;21076;-62
2023/03/30 08:42:32;;;;;;;8.55;1.80;;;;;;;7.16;42.80;100525.05;1739745;82;21487;-63
2023/03/30 08:45:04;;;;;;;5.72;1.70;;;;;;;7.13;43.90;100508.17;1739391;82;21031;-64
2023/03/30 08:47:37;;;;;;;13.20;2.70;;;;;;;7.26;44.69;100513.45;1739430;82;21059;-63
2023/03/30 08:50:31;;;;;;;4.30;1.60;;;;;;;7.46;44.55;100514.43;1739488;82;21464;-64
2023/03/30 08:53:03;;;;;;;6.53;2.10;;;;;;;7.59;41.92;100506.55;1697102;84;21054;-64
2023/03/30 08:55:45;;;;;;;4.12;1.77;;;;;;;7.38;43.18;100517.18;1687815;85;21003;-63
2023/03/30 08:58:22;;;;;;;13.43;1.95;;;;;;;7.28;42.43;100510.56;1687610;85;21059;-63
2023/03/30 09:01:14;;;;;;;5.80;1.85;;;;;;;7.13;42.22;100513.62;1699566;84;21035;-65
2023/03/30 09:04:01;;;;;;;6.45;1.52;;;;;;;7.10;40.66;100513.45;1699587;84;21043;-64
2023/03/30 09:06:53;;;;;;;6.45;1.87;;;;;;;6.99;42.22;100520.11;1701839;84;20995;-65
2023/03/30 09:09:28;;;;;;;4.35;2.22;;;;;;;6.87;42.21;100513.31;1681896;85;21044;-67
2023/03/30 09:12:27;;;;;;;7.80;2.05;;;;;;;6.81;42.16;100509.05;1681947;85;21055;-66
2023/03/30 09:15:00;;;;;;;6.10;1.77;;;;;;;6.57;41.11;100506.67;1682036;85;21294;-67
2023/03/30 09:17:34;;;;;;;9.43;2.10;;;;;;;6.28;42.57;100507.13;1702557;84;21082;-68
2023/03/30 09:20:11;;;;;;;6.85;1.90;;;;;;;6.19;43.51;100506.77;1700513;83;21110;-62
2023/03/30 09:22:42;;;;;;;2.83;1.40;;;;;;;6.17;42.97;100502.00;1687026;85;21451;-63
2023/03/30 09:25:29;;;;;;;5.42;1.40;;;;;;;6.10;44.05;100512.35;1640229;87;21087;-63
2023/03/30 09:28:07;;;;;;;6.97;1.70;;;;;;;6.01;45.09;100507.40;1699312;84;21505;-62
2023/03/30 09:31:09;;;;;;;4.62;1.52;;;;;;;5.99;44.04;100513.01;1698903;84;21147;-66
2023/03/30 09:34:05;;;;;;;3.42;1.60;;;;;;;5.94;43.04;100509.08;1699211;83;21487;-66
2023/03/30 09:37:04;;;;;;;6.83;2.17;;;;;;;5.78;41.90;100494.86;1698999;84;21010;-65
2023/03/30 09:39:35;;;;;;;4.95;1.67;;;;;;;5.67;42.92;100491.08;1687257;84;21013;-68
2023/03/30 09:42:36;;;;;;;5.30;2.08;;;;;;;5.54;43.08;100475.73;1698998;84;21561;-65
2023/03/30 09:45:22;;;;;;;3.80;1.80;;;;;;;5.49;44.42;100487.61;1699072;83;21082;-65
2023/03/30 09:47:52;;;;;;;3.75;1.98;;;;;;;5.57;44.69;100487.13;1674968;83;21364;-65
2023/03/30 09:50:30;;;;;;;5.95;1.77;;;;;;;5.59;43.29;100484.25;1699056;83;21067;-66
2023/03/30 09:53:04;;;;;;;5.05;1.75;;;;;;;5.53;43.52;100479.47;1698910;84;21051;-66
2023/03/30 09:55:37;;;;;;;3.45;1.20;;;;;;;5.52;43.21;100477.77;1699053;83;21050;-66
2023/03/30 09:58:18;;;;;;;6.78;1.70;;;;;;;5.49;42.09;100469.94;1698961;83;21066;-66
2023/03/30 10:00:51;;;;;;;4.20;1.52;;;;;;;5.46;42.03;100459.39;1699066;84;21082;-68
2023/03/30 10:03:22;;;;;;;3.27;1.30;;;;;;;5.47;42.16;100469.25;1697845;83;21491;-66
2023/03/30 10:06:03;;;;;;;3.25;1.30;;;;;;;5.48;42.15;100462.80;1698186;84;21595;-68
2023/03/30 10:08:37;;;;;;;11.78;2.70;;;;;;;5.50;43.82;100460.27;1696056;84;21462;-67
2023/03/30 10:11:08;;;;;;;4.37;1.82;;;;;;;5.57;43.31;100460.46;1697554;83;21098;-64
2023/03/30 10:13:40;;;;;;;4.00;1.45;;;;;;;5.64;42.60;100454.71;1697377;84;21069;-68
2023/03/30 10:16:14;;;;;;;1.82;1.00;;;;;;;5.72;42.68;100457.45;1697397;83;21470;-67
2023/03/30 10:18:45;;;;;;;5.35;1.15;;;;;;;5.77;42.23;100452.38;1697233;84;21059;-70
2023/03/30 10:21:21;;;;;;;8.10;1.60;;;;;;;5.77;41.75;100440.64;1708647;82;21038;-69
2023/03/30 10:24:10;;;;;;;6.33;2.20;;;;;;;5.80;42.05;100434.88;1698200;83;21053;-69
2023/03/30 10:26:37;;;;;;;4.05;1.45;;;;;;;5.87;42.92;100430.51;1724780;82;21046;-68
2023/03/30 10:29:09;;;;;;;2.90;1.37;;;;;;;5.93;40.85;100440.75;1725361;83;21038;-69
2023/03/30 10:31:47;;;;;;;8.08;1.57;;;;;;;5.90;40.78;100433.78;1725755;83;21090;-69
2023/03/30 10:34:22;;;;;;;3.80;1.10;;;;;;;5.93;41.91;100436.67;1724789;83;21038;-71
2023/03/30 10:36:52;;;;;;;6.78;1.60;;;;;;;5.94;40.36;100428.34;1722023;83;20987;-70
2023/03/30 10:39:27;;;;;;;5.12;1.50;;;;;;;5.92;40.94;100431.74;1722387;82;21018;-68
2023/03/30 10:41:56;;;;;;;4.58;1.35;;;;;;;5.99;40.77;100432.77;1722146;83;21038;-69
2023/03/30 10:44:35;;;;;;;9.18;1.55;;;;;;;6.02;39.29;100420.71;1722407;83;21054;-70
2023/03/30 10:47:35;;;;;;;4.25;1.27;;;;;;;5.98;40.69;100437.02;1722396;83;21062;-69
2023/03/30 10:50:26;;;;;;;4.30;1.50;;;;;;;5.96;39.76;100427.67;1722536;82;21070;-71
2023/03/30 10:53:25;;;;;;;3.37;1.15;;;;;;;5.94;39.80;100432.42;1704203;81;20994;-69
2023/03/30 10:56:27;;;;;;;2.83;1.52;;;;;;;5.96;40.04;100426.82;1718504;82;21065;-69
2023/03/30 10:59:05;;;;;;;1.87;1.20;;;;;;;6.01;39.86;100426.66;1705022;83;21092;-71
2023/03/30 11:01:50;;;;;;;9.85;1.70;;;;;;;6.04;38.64;100418.16;1650203;87;21063;-69
2023/03/30 11:04:35;;;;;;;3.80;1.30;;;;;;;6.03;40.07;100411.53;1679213;83;21085;-70
2023/03/30 11:07:07;;;;;;;4.10;1.22;;;;;;;6.05;39.82;100414.94;1685664;85;21452;-70
2023/03/30 11:09:38;;;;;;;5.85;1.20;;;;;;;6.07;39.24;100418.84;1742116;82;21096;-71
2023/03/30 11:12:15;;;;;;;6.12;1.57;;;;;;;6.08;40.07;100412.39;1743893;82;21017;-69
2023/03/30 11:14:59;;;;;;;2.83;1.10;;;;;;;6.13;40.28;100407.29;1743822;81;20993;-69
2023/03/30 11:17:32;;;;;;;3.45;0.90;;;;;;;6.21;43.07;100415.45;1694525;82;21076;-69
2023/03/30 11:20:26;;;;;;;3.72;1.27;;;;;;;6.30;40.08;100401.69;1743930;82;21001;-71
2023/03/30 11:23:07;;;;;;;6.92;1.92;;;;;;;6.30;40.72;100400.83;1743834;81;21088;-69
2023/03/30 11:25:54;;;;;;;4.35;1.20;;;;;;;6.32;39.99;100394.20;1736943;81;21023;-70
2023/03/30 11:29:15;;;;;;;4.83;1.40;;;;;;;6.39;40.92;100390.80;1750516;81;21078;-72
2023/03/30 11:32:05;;;;;;;9.95;3.77;;;;;;;6.43;40.67;100384.84;1750011;81;21039;-68
2023/03/30 11:35:02;;;;;;;4.80;1.72;;;;;;;6.50;40.60;100376.84;1677939;85;21036;-69
2023/03/30 11:37:37;;;;;;;4.33;1.55;;;;;;;6.55;39.60;100375.33;1677956;85;21090;-67
2023/03/30 11:40:20;;;;;;;3.70;1.87;;;;;;;6.59;40.10;100381.28;1678176;85;21047;-69
2023/03/30 11:42:50;;;;;;;7.35;1.62;;;;;;;6.62;39.17;100373.62;1678241;85;21083;-69
2023/03/30 11:45:26;;;;;;;5.45;1.90;;;;;;;6.62;38.87;100367.33;1678119;85;21075;-68
2023/03/30 11:48:09;;;;;;;5.30;1.30;;;;;;;6.65;38.79;100380.59;1676989;85;21015;-68
2023/03/30 11:50:59;;;;;;;4.45;1.40;;;;;;;6.67;39.17;100387.56;1677812;85;21072;-67
2023/03/30 11:53:40;;;;;;;4.67;1.55;;;;;;;6.68;39.13;100364.75;1678098;85;21113;-68
2023/03/30 11:56:32;;;;;;;4.00;1.60;;;;;;;6.67;39.52;100365.78;1675438;85;21055;-68
2023/03/30 11:59:07;;;;;;;10.15;1.50;;;;;;;6.72;39.46;100369.34;1643530;85;21133;-69
2023/03/30 12:01:55;;;;;;;3.77;1.90;;;;;;;6.73;39.87;100356.58;1657142;86;21059;-69
2023/03/30 12:04:29;;;;;;;7.45;1.70;;;;;;;6.76;40.19;100356.23;1657152;85;21094;-69
2023/03/30 12:07:02;;;;;;;12.73;1.45;;;;;;;6.78;40.57;100359.11;1631308;87;21562;-70
2023/03/30 12:09:37;;;;;;;5.20;1.50;;;;;;;6.83;40.43;100346.34;1651791;87;21077;-70
2023/03/30 12:12:22;;;;;;;5.55;1.60;;;;;;;6.81;39.77;100345.66;1684934;82;21030;-69
2023/03/30 12:15:25;;;;;;;3.40;1.22;;;;;;;6.82;40.40;100350.94;1730794;82;21065;-60
2023/03/30 12:18:07;;;;;;;6.03;1.60;;;;;;;6.85;40.86;100353.31;1704730;83;21056;-60